South Hills Village, Pennsylvania
Current Conditions -  °F | °C
As of 6:53 PM on Wednesday 28 Jan 2015 (Local Time) from KAGC Reporting Station
Clear Clear  
Wind Chill: 21°   Ceiling: Unl
Heat Index: 21°   Visibility: 10mi
Dew Point:   Wind: 0mph
Humidity: 53%   Direction: NA
Pressure: 30.3"   Gusts: NA
Location:  40.3301°N, 80.0824°W
Report Text: KAGC 282353Z 00000KT 10SM CLR M06/M14 A3030 RMK AO2 SLP287 T10611144 11056 21072 51004
Loading
Personal Weather Stations






























Interactive Weather Map New forecast layout! Learn more

10-Day Weather Forecast

Advertisements
Track Severe Weather on mobile